sensor_id;sensor_type;location;lat;lon;timestamp;pressure;altitude;pressure_sealevel;temperature;humidity
27984;BME280;15317;50.360;8.726;2023-02-28T00:02:00;100579.19;;;0.51;84.39
27984;BME280;15317;50.360;8.726;2023-02-28T00:06:03;100583.63;;;0.52;84.63
27984;BME280;15317;50.360;8.726;2023-02-28T00:10:06;100582.69;;;0.53;84.47
27984;BME280;15317;50.360;8.726;2023-02-28T00:14:10;100580.28;;;0.47;85.32
27984;BME280;15317;50.360;8.726;2023-02-28T00:18:12;100563.78;;;0.37;86.02
27984;BME280;15317;50.360;8.726;2023-02-28T00:22:14;100582.22;;;0.43;85.99
27984;BME280;15317;50.360;8.726;2023-02-28T00:26:16;100579.88;;;0.35;86.13
27984;BME280;15317;50.360;8.726;2023-02-28T00:30:22;100569.00;;;0.40;85.58
27984;BME280;15317;50.360;8.726;2023-02-28T00:34:24;100582.66;;;0.34;85.81
27984;BME280;15317;50.360;8.726;2023-02-28T00:38:26;100562.63;;;0.24;86.66
27984;BME280;15317;50.360;8.726;2023-02-28T00:42:28;100576.91;;;0.23;86.00
27984;BME280;15317;50.360;8.726;2023-02-28T00:46:31;100579.25;;;0.10;86.49
27984;BME280;15317;50.360;8.726;2023-02-28T00:50:33;100580.34;;;0.06;86.45
27984;BME280;15317;50.360;8.726;2023-02-28T00:54:35;100578.88;;;-0.01;85.50
27984;BME280;15317;50.360;8.726;2023-02-28T00:58:37;100583.94;;;-0.15;86.17
27984;BME280;15317;50.360;8.726;2023-02-28T01:02:41;100583.06;;;-0.16;85.53
27984;BME280;15317;50.360;8.726;2023-02-28T01:06:43;100584.88;;;-0.16;86.18
27984;BME280;15317;50.360;8.726;2023-02-28T01:10:45;100581.81;;;-0.27;86.22
27984;BME280;15317;50.360;8.726;2023-02-28T01:14:47;100583.84;;;-0.34;86.57
27984;BME280;15317;50.360;8.726;2023-02-28T01:18:51;100575.97;;;-0.37;87.49
27984;BME280;15317;50.360;8.726;2023-02-28T01:22:52;100577.34;;;-0.49;87.66
27984;BME280;15317;50.360;8.726;2023-02-28T01:26:54;100577.63;;;-0.55;88.32
27984;BME280;15317;50.360;8.726;2023-02-28T01:30:56;100574.19;;;-0.58;88.85
27984;BME280;15317;50.360;8.726;2023-02-28T01:35:00;100568.91;;;-0.60;89.07
27984;BME280;15317;50.360;8.726;2023-02-28T01:39:02;100568.44;;;-0.69;89.65
27984;BME280;15317;50.360;8.726;2023-02-28T01:43:05;100561.63;;;-0.76;90.71
27984;BME280;15317;50.360;8.726;2023-02-28T01:47:18;100575.00;;;-0.78;90.74
27984;BME280;15317;50.360;8.726;2023-02-28T01:51:26;100561.88;;;-0.83;90.95
27984;BME280;15317;50.360;8.726;2023-02-28T01:55:31;100564.41;;;-0.80;91.03
27984;BME280;15317;50.360;8.726;2023-02-28T01:59:38;100560.13;;;-0.84;92.40
27984;BME280;15317;50.360;8.726;2023-02-28T02:03:46;100559.50;;;-0.90;93.02
27984;BME280;15317;50.360;8.726;2023-02-28T02:07:54;100557.78;;;-0.91;92.85
27984;BME280;15317;50.360;8.726;2023-02-28T02:11:57;100550.63;;;-0.91;92.87
27984;BME280;15317;50.360;8.726;2023-02-28T02:16:08;100549.09;;;-0.96;92.14
27984;BME280;15317;50.360;8.726;2023-02-28T02:29:53;100543.06;;;-1.01;93.13
27984;BME280;15317;50.360;8.726;2023-02-28T02:34:17;100542.28;;;-1.03;92.07
27984;BME280;15317;50.360;8.726;2023-02-28T02:38:32;100537.97;;;-1.07;92.09
27984;BME280;15317;50.360;8.726;2023-02-28T02:42:39;100529.34;;;-1.14;92.16
27984;BME280;15317;50.360;8.726;2023-02-28T02:46:45;100533.47;;;-1.05;92.40
27984;BME280;15317;50.360;8.726;2023-02-28T02:50:51;100534.38;;;-1.06;92.10
27984;BME280;15317;50.360;8.726;2023-02-28T02:54:56;100535.31;;;-1.07;91.81
27984;BME280;15317;50.360;8.726;2023-02-28T02:59:02;100536.19;;;-1.07;90.61
27984;BME280;15317;50.360;8.726;2023-02-28T03:03:05;100545.03;;;-1.06;90.61
27984;BME280;15317;50.360;8.726;2023-02-28T03:07:10;100542.06;;;-0.99;89.59
27984;BME280;15317;50.360;8.726;2023-02-28T03:11:13;100545.72;;;-1.01;89.89
27984;BME280;15317;50.360;8.726;2023-02-28T03:15:19;100542.53;;;-1.09;89.48
27984;BME280;15317;50.360;8.726;2023-02-28T03:19:35;100542.53;;;-1.09;89.70
27984;BME280;15317;50.360;8.726;2023-02-28T03:23:45;100550.56;;;-1.11;89.41
27984;BME280;15317;50.360;8.726;2023-02-28T03:28:00;100535.91;;;-1.23;89.68
27984;BME280;15317;50.360;8.726;2023-02-28T03:32:10;100543.84;;;-1.21;89.14
27984;BME280;15317;50.360;8.726;2023-02-28T03:36:20;100538.28;;;-1.15;88.68
27984;BME280;15317;50.360;8.726;2023-02-28T03:40:28;100537.72;;;-1.23;88.38
27984;BME280;15317;50.360;8.726;2023-02-28T03:44:35;100531.41;;;-1.21;88.22
27984;BME280;15317;50.360;8.726;2023-02-28T03:48:43;100542.50;;;-1.31;88.32
27984;BME280;15317;50.360;8.726;2023-02-28T03:52:49;100545.22;;;-1.33;88.09
27984;BME280;15317;50.360;8.726;2023-02-28T03:56:57;100547.06;;;-1.35;88.46
27984;BME280;15317;50.360;8.726;2023-02-28T04:01:04;100546.94;;;-1.32;88.63
27984;BME280;15317;50.360;8.726;2023-02-28T04:05:08;100551.03;;;-1.45;89.18
27984;BME280;15317;50.360;8.726;2023-02-28T04:09:12;100540.22;;;-1.42;89.16
27984;BME280;15317;50.360;8.726;2023-02-28T04:13:16;100551.25;;;-1.51;90.00
27984;BME280;15317;50.360;8.726;2023-02-28T04:17:18;100552.03;;;-1.49;89.87
27984;BME280;15317;50.360;8.726;2023-02-28T04:21:20;100549.63;;;-1.55;90.02
27984;BME280;15317;50.360;8.726;2023-02-28T04:25:22;100556.28;;;-1.67;90.98
27984;BME280;15317;50.360;8.726;2023-02-28T04:29:27;100551.81;;;-1.66;91.38
27984;BME280;15317;50.360;8.726;2023-02-28T04:33:31;100557.84;;;-1.61;91.60
27984;BME280;15317;50.360;8.726;2023-02-28T04:37:33;100555.50;;;-1.70;92.05
27984;BME280;15317;50.360;8.726;2023-02-28T04:41:35;100558.53;;;-1.56;91.55
27984;BME280;15317;50.360;8.726;2023-02-28T04:45:38;100552.47;;;-1.60;91.45
27984;BME280;15317;50.360;8.726;2023-02-28T04:49:40;100541.84;;;-1.61;91.63
27984;BME280;15317;50.360;8.726;2023-02-28T04:53:43;100551.59;;;-1.60;91.88
27984;BME280;15317;50.360;8.726;2023-02-28T04:57:45;100551.78;;;-1.65;91.56
27984;BME280;15317;50.360;8.726;2023-02-28T05:01:49;100558.53;;;-1.56;91.60
27984;BME280;15317;50.360;8.726;2023-02-28T05:05:51;100554.50;;;-1.66;92.03
27984;BME280;15317;50.360;8.726;2023-02-28T05:09:53;100559.59;;;-1.60;92.19
27984;BME280;15317;50.360;8.726;2023-02-28T05:13:55;100561.28;;;-1.57;91.96
27984;BME280;15317;50.360;8.726;2023-02-28T05:17:58;100562.97;;;-1.56;91.32
27984;BME280;15317;50.360;8.726;2023-02-28T05:22:00;100571.16;;;-1.61;91.81
27984;BME280;15317;50.360;8.726;2023-02-28T05:26:03;100575.34;;;-1.54;90.99
27984;BME280;15317;50.360;8.726;2023-02-28T05:30:06;100573.88;;;-1.63;91.25
27984;BME280;15317;50.360;8.726;2023-02-28T05:34:12;100578.22;;;-1.60;90.47
27984;BME280;15317;50.360;8.726;2023-02-28T05:38:16;100567.69;;;-1.63;90.47
27984;BME280;15317;50.360;8.726;2023-02-28T05:42:18;100576.25;;;-1.55;89.76
27984;BME280;15317;50.360;8.726;2023-02-28T05:46:20;100580.56;;;-1.51;89.25
27984;BME280;15317;50.360;8.726;2023-02-28T05:50:23;100572.66;;;-1.54;89.43
27984;BME280;15317;50.360;8.726;2023-02-28T05:54:25;100580.78;;;-1.57;89.15
27984;BME280;15317;50.360;8.726;2023-02-28T05:58:27;100585.72;;;-1.46;88.98
27984;BME280;15317;50.360;8.726;2023-02-28T06:02:31;100593.97;;;-1.54;89.12
27984;BME280;15317;50.360;8.726;2023-02-28T06:06:34;100587.41;;;-1.44;88.38
27984;BME280;15317;50.360;8.726;2023-02-28T06:10:37;100582.63;;;-1.36;87.25
27984;BME280;15317;50.360;8.726;2023-02-28T06:14:39;100588.81;;;-1.35;86.29
27984;BME280;15317;50.360;8.726;2023-02-28T06:18:41;100587.63;;;-1.27;85.86
27984;BME280;15317;50.360;8.726;2023-02-28T06:22:44;100583.72;;;-1.18;85.43
27984;BME280;15317;50.360;8.726;2023-02-28T06:26:46;100589.84;;;-1.16;86.03
27984;BME280;15317;50.360;8.726;2023-02-28T06:30:48;100598.25;;;-1.03;85.09
27984;BME280;15317;50.360;8.726;2023-02-28T06:34:51;100595.09;;;-0.91;84.62
27984;BME280;15317;50.360;8.726;2023-02-28T06:38:54;100599.56;;;-0.92;83.89
27984;BME280;15317;50.360;8.726;2023-02-28T06:42:56;100601.44;;;-0.72;82.44
27984;BME280;15317;50.360;8.726;2023-02-28T06:46:58;100606.28;;;-0.60;81.51
27984;BME280;15317;50.360;8.726;2023-02-28T06:51:02;100613.53;;;-0.42;81.54
27984;BME280;15317;50.360;8.726;2023-02-28T06:55:07;100615.81;;;-0.32;80.40
27984;BME280;15317;50.360;8.726;2023-02-28T06:59:09;100625.13;;;-0.21;80.57
27984;BME280;15317;50.360;8.726;2023-02-28T07:03:12;100625.34;;;-0.27;80.65
27984;BME280;15317;50.360;8.726;2023-02-28T07:07:16;100630.94;;;-0.11;80.65
27984;BME280;15317;50.360;8.726;2023-02-28T07:11:19;100627.25;;;-0.29;80.83
27984;BME280;15317;50.360;8.726;2023-02-28T07:15:23;100631.75;;;-0.09;80.06
27984;BME280;15317;50.360;8.726;2023-02-28T07:19:25;100636.00;;;-0.05;79.87
27984;BME280;15317;50.360;8.726;2023-02-28T07:23:27;100630.28;;;0.04;79.30
27984;BME280;15317;50.360;8.726;2023-02-28T07:27:30;100641.94;;;0.02;79.12
27984;BME280;15317;50.360;8.726;2023-02-28T07:31:32;100639.38;;;0.20;78.54
27984;BME280;15317;50.360;8.726;2023-02-28T07:35:34;100638.31;;;0.24;77.69
27984;BME280;15317;50.360;8.726;2023-02-28T07:39:36;100637.81;;;0.15;77.91
27984;BME280;15317;50.360;8.726;2023-02-28T07:43:40;100635.03;;;0.18;77.85
27984;BME280;15317;50.360;8.726;2023-02-28T07:47:42;100630.34;;;0.23;76.78
27984;BME280;15317;50.360;8.726;2023-02-28T07:51:45;100641.28;;;0.37;75.84
27984;BME280;15317;50.360;8.726;2023-02-28T07:55:46;100639.97;;;0.47;75.22
27984;BME280;15317;50.360;8.726;2023-02-28T07:59:50;100644.00;;;0.56;74.65
27984;BME280;15317;50.360;8.726;2023-02-28T08:03:52;100644.59;;;0.62;72.21
27984;BME280;15317;50.360;8.726;2023-02-28T08:07:55;100641.75;;;0.86;71.08
27984;BME280;15317;50.360;8.726;2023-02-28T08:11:57;100641.97;;;1.18;69.43
27984;BME280;15317;50.360;8.726;2023-02-28T08:16:01;100650.81;;;1.75;68.37
27984;BME280;15317;50.360;8.726;2023-02-28T08:20:04;100654.91;;;2.18;65.50
27984;BME280;15317;50.360;8.726;2023-02-28T08:24:07;100647.94;;;2.14;63.80
27984;BME280;15317;50.360;8.726;2023-02-28T08:28:09;100652.59;;;2.45;61.87
27984;BME280;15317;50.360;8.726;2023-02-28T08:32:12;100643.34;;;2.33;60.69
27984;BME280;15317;50.360;8.726;2023-02-28T08:36:14;100640.81;;;2.48;59.60
27984;BME280;15317;50.360;8.726;2023-02-28T08:40:17;100650.00;;;2.44;59.74
27984;BME280;15317;50.360;8.726;2023-02-28T08:44:20;100641.56;;;2.67;58.44
27984;BME280;15317;50.360;8.726;2023-02-28T08:48:23;100638.94;;;2.83;57.08
27984;BME280;15317;50.360;8.726;2023-02-28T08:52:25;100637.06;;;2.67;57.03
27984;BME280;15317;50.360;8.726;2023-02-28T08:56:28;100647.78;;;3.00;57.68
27984;BME280;15317;50.360;8.726;2023-02-28T09:00:30;100651.88;;;2.92;55.98
27984;BME280;15317;50.360;8.726;2023-02-28T09:04:33;100658.84;;;3.11;54.67
27984;BME280;15317;50.360;8.726;2023-02-28T09:08:35;100649.50;;;3.50;54.64
27984;BME280;15317;50.360;8.726;2023-02-28T09:12:37;100660.03;;;3.69;52.46
27984;BME280;15317;50.360;8.726;2023-02-28T09:16:39;100658.84;;;3.74;51.47
27984;BME280;15317;50.360;8.726;2023-02-28T09:20:42;100656.91;;;3.92;49.06
27984;BME280;15317;50.360;8.726;2023-02-28T09:24:44;100654.00;;;3.34;49.07
27984;BME280;15317;50.360;8.726;2023-02-28T09:28:46;100653.66;;;3.55;49.28
27984;BME280;15317;50.360;8.726;2023-02-28T09:32:48;100642.75;;;3.27;48.33
27984;BME280;15317;50.360;8.726;2023-02-28T09:36:54;100634.41;;;3.16;49.20
27984;BME280;15317;50.360;8.726;2023-02-28T09:40:59;100644.91;;;3.68;48.81
27984;BME280;15317;50.360;8.726;2023-02-28T09:45:06;100652.25;;;3.64;48.28
27984;BME280;15317;50.360;8.726;2023-02-28T09:49:16;100640.56;;;3.49;48.42
27984;BME280;15317;50.360;8.726;2023-02-28T09:53:25;100651.31;;;3.81;46.90
27984;BME280;15317;50.360;8.726;2023-02-28T09:57:32;100640.63;;;3.79;46.93
27984;BME280;15317;50.360;8.726;2023-02-28T10:01:39;100639.59;;;4.12;47.43
27984;BME280;15317;50.360;8.726;2023-02-28T10:05:50;100641.84;;;4.19;46.28
27984;BME280;15317;50.360;8.726;2023-02-28T10:09:58;100641.94;;;4.18;46.14
27984;BME280;15317;50.360;8.726;2023-02-28T10:14:04;100640.75;;;4.52;46.21
27984;BME280;15317;50.360;8.726;2023-02-28T10:18:10;100645.66;;;4.59;45.60
27984;BME280;15317;50.360;8.726;2023-02-28T10:22:18;100639.03;;;3.91;46.04
27984;BME280;15317;50.360;8.726;2023-02-28T10:26:26;100653.38;;;4.21;46.24
27984;BME280;15317;50.360;8.726;2023-02-28T10:30:30;100649.75;;;4.22;45.33
27984;BME280;15317;50.360;8.726;2023-02-28T10:34:32;100650.00;;;3.72;46.38
27984;BME280;15317;50.360;8.726;2023-02-28T10:38:37;100644.69;;;3.08;47.64
27984;BME280;15317;50.360;8.726;2023-02-28T10:42:41;100645.69;;;3.38;48.40
27984;BME280;15317;50.360;8.726;2023-02-28T10:46:43;100645.75;;;3.05;48.44
27984;BME280;15317;50.360;8.726;2023-02-28T10:50:51;100634.69;;;3.58;47.19
27984;BME280;15317;50.360;8.726;2023-02-28T10:55:14;100635.19;;;4.41;46.85
27984;BME280;15317;50.360;8.726;2023-02-28T10:59:28;100632.53;;;4.25;46.38
27984;BME280;15317;50.360;8.726;2023-02-28T11:03:32;100636.41;;;4.35;45.72
27984;BME280;15317;50.360;8.726;2023-02-28T11:07:35;100641.59;;;3.78;46.04
27984;BME280;15317;50.360;8.726;2023-02-28T11:11:43;100632.00;;;3.58;46.77
27984;BME280;15317;50.360;8.726;2023-02-28T11:15:52;100625.41;;;3.33;47.92
27984;BME280;15317;50.360;8.726;2023-02-28T11:19:57;100631.81;;;3.30;47.63
27984;BME280;15317;50.360;8.726;2023-02-28T11:24:02;100635.38;;;3.31;47.16
27984;BME280;15317;50.360;8.726;2023-02-28T11:28:06;100619.78;;;3.37;47.81
27984;BME280;15317;50.360;8.726;2023-02-28T11:32:27;100626.28;;;3.33;47.32
27984;BME280;15317;50.360;8.726;2023-02-28T11:36:31;100613.47;;;3.84;47.65
27984;BME280;15317;50.360;8.726;2023-02-28T11:40:39;100621.47;;;4.15;46.53
27984;BME280;15317;50.360;8.726;2023-02-28T11:44:57;100613.47;;;3.84;45.98
27984;BME280;15317;50.360;8.726;2023-02-28T11:49:15;100610.56;;;3.73;46.53
27984;BME280;15317;50.360;8.726;2023-02-28T11:53:39;100617.63;;;4.19;46.18
27984;BME280;15317;50.360;8.726;2023-02-28T11:58:13;100612.63;;;4.13;45.58
27984;BME280;15317;50.360;8.726;2023-02-28T12:02:23;100606.88;;;4.19;46.10
27984;BME280;15317;50.360;8.726;2023-02-28T12:06:32;100610.25;;;3.93;45.69
27984;BME280;15317;50.360;8.726;2023-02-28T12:10:39;100605.47;;;3.68;46.94
27984;BME280;15317;50.360;8.726;2023-02-28T12:14:59;100592.78;;;3.86;47.44
27984;BME280;15317;50.360;8.726;2023-02-28T12:19:19;100604.78;;;4.24;46.44
27984;BME280;15317;50.360;8.726;2023-02-28T12:23:42;100594.72;;;4.28;45.97
27984;BME280;15317;50.360;8.726;2023-02-28T12:27:48;100593.28;;;4.36;46.06
27984;BME280;15317;50.360;8.726;2023-02-28T12:31:54;100601.28;;;4.08;46.27
27984;BME280;15317;50.360;8.726;2023-02-28T12:35:59;100594.84;;;4.11;46.90
27984;BME280;15317;50.360;8.726;2023-02-28T12:40:11;100603.78;;;4.11;46.70
27984;BME280;15317;50.360;8.726;2023-02-28T12:44:17;100594.00;;;4.24;46.85
27984;BME280;15317;50.360;8.726;2023-02-28T12:48:27;100600.78;;;4.46;46.83
27984;BME280;15317;50.360;8.726;2023-02-28T12:52:37;100597.03;;;4.34;47.05
27984;BME280;15317;50.360;8.726;2023-02-28T12:56:47;100578.56;;;4.28;47.21
27984;BME280;15317;50.360;8.726;2023-02-28T13:01:11;100591.25;;;3.96;47.21
27984;BME280;15317;50.360;8.726;2023-02-28T13:09:54;100598.66;;;4.22;45.89
27984;BME280;15317;50.360;8.726;2023-02-28T13:14:01;100581.53;;;4.23;46.25
27984;BME280;15317;50.360;8.726;2023-02-28T13:18:04;100566.47;;;4.35;46.91
27984;BME280;15317;50.360;8.726;2023-02-28T13:22:17;100573.72;;;4.77;47.44
27984;BME280;15317;50.360;8.726;2023-02-28T13:26:19;100571.09;;;4.90;47.74
27984;BME280;15317;50.360;8.726;2023-02-28T13:39:50;100563.91;;;4.76;47.44
27984;BME280;15317;50.360;8.726;2023-02-28T13:44:02;100561.22;;;4.76;47.84
27984;BME280;15317;50.360;8.726;2023-02-28T13:48:16;100562.81;;;4.64;47.43
27984;BME280;15317;50.360;8.726;2023-02-28T13:52:23;100560.03;;;4.80;47.71
27984;BME280;15317;50.360;8.726;2023-02-28T13:56:34;100555.44;;;4.68;48.07
27984;BME280;15317;50.360;8.726;2023-02-28T14:00:50;100561.13;;;4.49;48.41
27984;BME280;15317;50.360;8.726;2023-02-28T14:05:01;100563.09;;;4.31;48.32
27984;BME280;15317;50.360;8.726;2023-02-28T14:09:21;100555.25;;;4.43;48.51
27984;BME280;15317;50.360;8.726;2023-02-28T14:13:41;100551.31;;;4.62;48.15
27984;BME280;15317;50.360;8.726;2023-02-28T14:17:46;100549.00;;;4.56;48.76
27984;BME280;15317;50.360;8.726;2023-02-28T14:22:01;100549.88;;;4.57;48.58
27984;BME280;15317;50.360;8.726;2023-02-28T14:26:13;100539.78;;;4.74;47.86
27984;BME280;15317;50.360;8.726;2023-02-28T14:30:42;100542.56;;;4.45;47.44
27984;BME280;15317;50.360;8.726;2023-02-28T14:34:51;100538.03;;;4.73;47.76
27984;BME280;15317;50.360;8.726;2023-02-28T14:38:57;100545.72;;;4.65;47.69
27984;BME280;15317;50.360;8.726;2023-02-28T14:43:02;100543.31;;;4.89;47.11
27984;BME280;15317;50.360;8.726;2023-02-28T14:47:14;100543.91;;;4.52;47.84
27984;BME280;15317;50.360;8.726;2023-02-28T14:51:21;100527.97;;;4.49;47.88
27984;BME280;15317;50.360;8.726;2023-02-28T14:55:26;100531.03;;;4.57;47.11
27984;BME280;15317;50.360;8.726;2023-02-28T14:59:31;100521.22;;;4.70;47.61
27984;BME280;15317;50.360;8.726;2023-02-28T15:03:37;100527.09;;;4.76;47.68
27984;BME280;15317;50.360;8.726;2023-02-28T15:07:39;100514.13;;;4.41;47.74
27984;BME280;15317;50.360;8.726;2023-02-28T15:11:45;100520.84;;;4.48;48.46
27984;BME280;15317;50.360;8.726;2023-02-28T15:15:51;100513.75;;;4.47;48.64
27984;BME280;15317;50.360;8.726;2023-02-28T15:19:56;100523.44;;;4.35;48.76
27984;BME280;15317;50.360;8.726;2023-02-28T15:24:05;100517.78;;;4.40;49.13
27984;BME280;15317;50.360;8.726;2023-02-28T15:28:14;100518.63;;;4.40;48.29
27984;BME280;15317;50.360;8.726;2023-02-28T15:32:26;100525.94;;;4.52;48.53
27984;BME280;15317;50.360;8.726;2023-02-28T15:36:32;100521.81;;;4.47;48.51
27984;BME280;15317;50.360;8.726;2023-02-28T15:40:40;100522.69;;;4.61;49.05
27984;BME280;15317;50.360;8.726;2023-02-28T15:44:43;100521.81;;;4.61;48.97
27984;BME280;15317;50.360;8.726;2023-02-28T15:48:50;100521.03;;;4.45;48.31
27984;BME280;15317;50.360;8.726;2023-02-28T15:52:54;100522.38;;;4.52;49.07
27984;BME280;15317;50.360;8.726;2023-02-28T15:56:57;100517.47;;;4.44;49.87
27984;BME280;15317;50.360;8.726;2023-02-28T16:01:05;100512.47;;;4.38;49.32
27984;BME280;15317;50.360;8.726;2023-02-28T16:05:23;100520.28;;;4.28;48.72
27984;BME280;15317;50.360;8.726;2023-02-28T16:09:30;100520.84;;;4.19;48.92
27984;BME280;15317;50.360;8.726;2023-02-28T16:13:32;100520.03;;;4.03;49.06
27984;BME280;15317;50.360;8.726;2023-02-28T16:17:37;100525.22;;;3.92;49.58
27984;BME280;15317;50.360;8.726;2023-02-28T16:21:40;100525.50;;;3.87;50.53
27984;BME280;15317;50.360;8.726;2023-02-28T16:25:44;100535.75;;;3.81;50.43
27984;BME280;15317;50.360;8.726;2023-02-28T16:29:48;100529.53;;;3.65;50.87
27984;BME280;15317;50.360;8.726;2023-02-28T16:33:50;100530.06;;;3.55;50.88
27984;BME280;15317;50.360;8.726;2023-02-28T16:37:53;100545.00;;;3.45;51.65
27984;BME280;15317;50.360;8.726;2023-02-28T16:41:56;100537.25;;;3.25;52.39
27984;BME280;15317;50.360;8.726;2023-02-28T16:45:58;100542.25;;;3.15;52.72
27984;BME280;15317;50.360;8.726;2023-02-28T16:50:08;100543.84;;;3.04;53.19
27984;BME280;15317;50.360;8.726;2023-02-28T16:54:10;100552.94;;;2.86;54.16
27984;BME280;15317;50.360;8.726;2023-02-28T16:58:15;100554.22;;;2.78;54.33
27984;BME280;15317;50.360;8.726;2023-02-28T17:02:18;100568.38;;;2.65;54.65
27984;BME280;15317;50.360;8.726;2023-02-28T17:06:23;100563.06;;;2.48;55.10
27984;BME280;15317;50.360;8.726;2023-02-28T17:10:26;100559.16;;;2.37;55.80
27984;BME280;15317;50.360;8.726;2023-02-28T17:14:29;100561.69;;;2.23;56.37
27984;BME280;15317;50.360;8.726;2023-02-28T17:18:31;100560.56;;;2.27;56.93
27984;BME280;15317;50.360;8.726;2023-02-28T17:22:34;100567.38;;;2.17;57.24
27984;BME280;15317;50.360;8.726;2023-02-28T17:26:36;100562.97;;;2.16;57.11
27984;BME280;15317;50.360;8.726;2023-02-28T17:30:39;100577.06;;;2.20;57.88
27984;BME280;15317;50.360;8.726;2023-02-28T17:34:47;100577.25;;;2.17;57.64
27984;BME280;15317;50.360;8.726;2023-02-28T17:38:49;100585.41;;;2.14;58.06
27984;BME280;15317;50.360;8.726;2023-02-28T17:42:51;100596.31;;;2.11;57.98
27984;BME280;15317;50.360;8.726;2023-02-28T17:46:57;100601.34;;;1.99;58.89
27984;BME280;15317;50.360;8.726;2023-02-28T17:51:02;100598.75;;;1.98;58.62
27984;BME280;15317;50.360;8.726;2023-02-28T17:55:05;100599.94;;;1.92;59.46
27984;BME280;15317;50.360;8.726;2023-02-28T17:59:09;100604.19;;;1.96;59.55
27984;BME280;15317;50.360;8.726;2023-02-28T18:03:13;100608.75;;;1.94;59.14
27984;BME280;15317;50.360;8.726;2023-02-28T18:07:15;100605.47;;;1.89;59.54
27984;BME280;15317;50.360;8.726;2023-02-28T18:11:17;100612.00;;;1.84;60.11
27984;BME280;15317;50.360;8.726;2023-02-28T18:15:21;100611.91;;;1.85;60.31
27984;BME280;15317;50.360;8.726;2023-02-28T18:19:24;100617.25;;;1.85;60.45
27984;BME280;15317;50.360;8.726;2023-02-28T18:23:26;100615.63;;;1.83;60.97
27984;BME280;15317;50.360;8.726;2023-02-28T18:27:28;100618.69;;;1.75;60.47
27984;BME280;15317;50.360;8.726;2023-02-28T18:31:30;100615.13;;;1.75;60.47
27984;BME280;15317;50.360;8.726;2023-02-28T18:35:34;100616.94;;;1.74;60.68
27984;BME280;15317;50.360;8.726;2023-02-28T18:39:36;100622.31;;;1.74;60.99
27984;BME280;15317;50.360;8.726;2023-02-28T18:43:38;100618.31;;;1.64;61.33
27984;BME280;15317;50.360;8.726;2023-02-28T18:47:40;100610.78;;;1.55;62.18
27984;BME280;15317;50.360;8.726;2023-02-28T18:51:44;100608.59;;;1.44;62.86
27984;BME280;15317;50.360;8.726;2023-02-28T18:55:46;100607.72;;;1.44;63.28
27984;BME280;15317;50.360;8.726;2023-02-28T18:59:48;100612.94;;;1.47;63.08
27984;BME280;15317;50.360;8.726;2023-02-28T19:03:50;100611.44;;;1.41;63.78
27984;BME280;15317;50.360;8.726;2023-02-28T19:07:53;100607.28;;;1.36;63.41
27984;BME280;15317;50.360;8.726;2023-02-28T19:11:55;100611.66;;;1.37;63.87
27984;BME280;15317;50.360;8.726;2023-02-28T19:16:00;100602.28;;;1.28;64.39
27984;BME280;15317;50.360;8.726;2023-02-28T19:20:02;100606.91;;;1.25;64.14
27984;BME280;15317;50.360;8.726;2023-02-28T19:24:06;100603.59;;;1.19;64.64
27984;BME280;15317;50.360;8.726;2023-02-28T19:28:08;100604.59;;;1.17;64.60
27984;BME280;15317;50.360;8.726;2023-02-28T19:32:10;100606.78;;;1.09;64.85
27984;BME280;15317;50.360;8.726;2023-02-28T19:36:13;100607.44;;;0.95;66.14
27984;BME280;15317;50.360;8.726;2023-02-28T19:40:17;100620.31;;;0.87;65.95
27984;BME280;15317;50.360;8.726;2023-02-28T19:44:19;100619.50;;;0.85;67.05
27984;BME280;15317;50.360;8.726;2023-02-28T19:48:21;100621.22;;;0.86;66.45
27984;BME280;15317;50.360;8.726;2023-02-28T19:52:25;100621.66;;;0.77;66.99
27984;BME280;15317;50.360;8.726;2023-02-28T19:56:29;100619.31;;;0.69;67.79
27984;BME280;15317;50.360;8.726;2023-02-28T20:00:31;100620.41;;;0.65;68.25
27984;BME280;15317;50.360;8.726;2023-02-28T20:04:33;100615.69;;;0.52;68.33
27984;BME280;15317;50.360;8.726;2023-02-28T20:08:35;100621.72;;;0.36;69.57
27984;BME280;15317;50.360;8.726;2023-02-28T20:12:39;100614.19;;;0.26;70.47
27984;BME280;15317;50.360;8.726;2023-02-28T20:16:41;100614.19;;;0.26;70.31
27984;BME280;15317;50.360;8.726;2023-02-28T20:20:43;100610.00;;;0.20;70.54
27984;BME280;15317;50.360;8.726;2023-02-28T20:24:45;100608.09;;;0.22;70.09
27984;BME280;15317;50.360;8.726;2023-02-28T20:28:49;100615.34;;;0.20;70.85
27984;BME280;15317;50.360;8.726;2023-02-28T20:32:51;100615.34;;;0.20;70.90
27984;BME280;15317;50.360;8.726;2023-02-28T20:36:53;100610.59;;;0.27;70.55
27984;BME280;15317;50.360;8.726;2023-02-28T20:40:58;100604.22;;;0.29;70.28
27984;BME280;15317;50.360;8.726;2023-02-28T20:45:02;100600.22;;;0.19;70.29
27984;BME280;15317;50.360;8.726;2023-02-28T20:49:04;100603.56;;;0.24;70.81
27984;BME280;15317;50.360;8.726;2023-02-28T20:53:06;100607.22;;;0.22;71.09
27984;BME280;15317;50.360;8.726;2023-02-28T20:57:08;100600.22;;;0.19;71.32
27984;BME280;15317;50.360;8.726;2023-02-28T21:01:13;100601.50;;;0.11;71.56
27984;BME280;15317;50.360;8.726;2023-02-28T21:05:16;100601.88;;;0.02;72.06
27984;BME280;15317;50.360;8.726;2023-02-28T21:09:18;100607.81;;;-0.12;72.69
27984;BME280;15317;50.360;8.726;2023-02-28T21:13:20;100601.25;;;-0.25;73.33
27984;BME280;15317;50.360;8.726;2023-02-28T21:17:24;100586.97;;;-0.45;74.24
27984;BME280;15317;50.360;8.726;2023-02-28T21:21:27;100593.47;;;-0.52;74.95
27984;BME280;15317;50.360;8.726;2023-02-28T21:25:28;100599.44;;;-0.67;76.44
27984;BME280;15317;50.360;8.726;2023-02-28T21:29:31;100598.72;;;-0.70;76.95
27984;BME280;15317;50.360;8.726;2023-02-28T21:33:34;100599.13;;;-0.81;77.83
27984;BME280;15317;50.360;8.726;2023-02-28T21:37:36;100604.75;;;-0.89;78.29
27984;BME280;15317;50.360;8.726;2023-02-28T21:41:39;100596.13;;;-0.95;78.41
27984;BME280;15317;50.360;8.726;2023-02-28T21:45:41;100589.41;;;-1.04;79.01
27984;BME280;15317;50.360;8.726;2023-02-28T21:49:44;100601.38;;;-1.15;80.88
27984;BME280;15317;50.360;8.726;2023-02-28T21:53:47;100600.75;;;-1.22;81.02
27984;BME280;15317;50.360;8.726;2023-02-28T21:57:49;100603.56;;;-1.25;81.20